sensor_id;sensor_type;location;lat;lon;timestamp;P1;durP1;ratioP1;P2;durP2;ratioP2
83499;SDS011;73433;50.908;13.746;2023-12-22T00:00:00;13.27;;;2.93;;
83499;SDS011;73433;50.908;13.746;2023-12-22T00:02:28;8.57;;;2.00;;
83499;SDS011;73433;50.908;13.746;2023-12-22T00:04:55;11.13;;;1.87;;
83499;SDS011;73433;50.908;13.746;2023-12-22T00:07:22;8.90;;;2.20;;
83499;SDS011;73433;50.908;13.746;2023-12-22T00:09:50;9.03;;;2.40;;
83499;SDS011;73433;50.908;13.746;2023-12-22T00:12:17;11.00;;;1.80;;
83499;SDS011;73433;50.908;13.746;2023-12-22T00:14:44;11.93;;;2.90;;
83499;SDS011;73433;50.908;13.746;2023-12-22T00:17:11;6.53;;;2.30;;
83499;SDS011;73433;50.908;13.746;2023-12-22T00:19:39;7.67;;;1.90;;
83499;SDS011;73433;50.908;13.746;2023-12-22T00:22:07;20.37;;;3.30;;
83499;SDS011;73433;50.908;13.746;2023-12-22T00:24:34;4.20;;;2.10;;
83499;SDS011;73433;50.908;13.746;2023-12-22T00:27:01;16.93;;;4.23;;
83499;SDS011;73433;50.908;13.746;2023-12-22T00:29:30;5.20;;;1.97;;
83499;SDS011;73433;50.908;13.746;2023-12-22T00:31:57;12.40;;;2.20;;
83499;SDS011;73433;50.908;13.746;2023-12-22T00:34:24;5.57;;;2.07;;
83499;SDS011;73433;50.908;13.746;2023-12-22T00:36:52;4.17;;;1.53;;
83499;SDS011;73433;50.908;13.746;2023-12-22T00:39:19;3.93;;;2.23;;
83499;SDS011;73433;50.908;13.746;2023-12-22T00:41:46;8.20;;;2.33;;
83499;SDS011;73433;50.908;13.746;2023-12-22T00:44:13;6.90;;;2.33;;
83499;SDS011;73433;50.908;13.746;2023-12-22T00:46:41;12.77;;;2.40;;
83499;SDS011;73433;50.908;13.746;2023-12-22T00:49:08;4.40;;;1.80;;
83499;SDS011;73433;50.908;13.746;2023-12-22T00:51:35;8.67;;;1.60;;
83499;SDS011;73433;50.908;13.746;2023-12-22T00:54:02;7.50;;;2.00;;
83499;SDS011;73433;50.908;13.746;2023-12-22T00:56:30;6.23;;;1.60;;
83499;SDS011;73433;50.908;13.746;2023-12-22T00:58:57;3.80;;;1.80;;
83499;SDS011;73433;50.908;13.746;2023-12-22T01:01:37;13.00;;;1.97;;
83499;SDS011;73433;50.908;13.746;2023-12-22T01:04:04;12.43;;;2.97;;
83499;SDS011;73433;50.908;13.746;2023-12-22T01:06:32;8.63;;;2.00;;
83499;SDS011;73433;50.908;13.746;2023-12-22T01:09:03;16.93;;;2.20;;
83499;SDS011;73433;50.908;13.746;2023-12-22T01:11:30;7.50;;;2.03;;
83499;SDS011;73433;50.908;13.746;2023-12-22T01:13:58;8.93;;;2.10;;
83499;SDS011;73433;50.908;13.746;2023-12-22T01:16:25;5.17;;;1.70;;
83499;SDS011;73433;50.908;13.746;2023-12-22T01:18:52;6.90;;;1.73;;
83499;SDS011;73433;50.908;13.746;2023-12-22T01:21:20;9.30;;;2.50;;
83499;SDS011;73433;50.908;13.746;2023-12-22T01:23:47;5.47;;;1.70;;
83499;SDS011;73433;50.908;13.746;2023-12-22T01:26:14;14.93;;;2.33;;
83499;SDS011;73433;50.908;13.746;2023-12-22T01:28:42;7.80;;;1.90;;
83499;SDS011;73433;50.908;13.746;2023-12-22T01:31:09;5.10;;;1.97;;
83499;SDS011;73433;50.908;13.746;2023-12-22T01:33:36;6.83;;;2.23;;
83499;SDS011;73433;50.908;13.746;2023-12-22T01:36:04;7.53;;;1.67;;
83499;SDS011;73433;50.908;13.746;2023-12-22T01:38:31;12.90;;;2.97;;
83499;SDS011;73433;50.908;13.746;2023-12-22T01:40:59;9.67;;;3.30;;
83499;SDS011;73433;50.908;13.746;2023-12-22T01:43:26;16.43;;;1.90;;
83499;SDS011;73433;50.908;13.746;2023-12-22T01:45:56;17.07;;;2.00;;
83499;SDS011;73433;50.908;13.746;2023-12-22T01:48:25;19.10;;;3.80;;
83499;SDS011;73433;50.908;13.746;2023-12-22T01:50:54;6.90;;;3.20;;
83499;SDS011;73433;50.908;13.746;2023-12-22T01:53:22;11.67;;;2.93;;
83499;SDS011;73433;50.908;13.746;2023-12-22T01:55:52;5.40;;;2.20;;
83499;SDS011;73433;50.908;13.746;2023-12-22T01:58:24;11.57;;;2.53;;
83499;SDS011;73433;50.908;13.746;2023-12-22T02:00:53;8.40;;;2.60;;
83499;SDS011;73433;50.908;13.746;2023-12-22T02:03:21;15.10;;;3.40;;
83499;SDS011;73433;50.908;13.746;2023-12-22T02:05:48;9.27;;;2.60;;
83499;SDS011;73433;50.908;13.746;2023-12-22T02:08:17;12.80;;;3.07;;
83499;SDS011;73433;50.908;13.746;2023-12-22T02:10:45;11.80;;;2.17;;
83499;SDS011;73433;50.908;13.746;2023-12-22T02:13:12;9.93;;;2.23;;
83499;SDS011;73433;50.908;13.746;2023-12-22T02:15:40;4.67;;;1.90;;
83499;SDS011;73433;50.908;13.746;2023-12-22T02:18:12;19.87;;;3.37;;
83499;SDS011;73433;50.908;13.746;2023-12-22T02:20:48;29.53;;;4.20;;
83499;SDS011;73433;50.908;13.746;2023-12-22T02:23:15;18.50;;;3.50;;
83499;SDS011;73433;50.908;13.746;2023-12-22T02:25:43;12.43;;;3.90;;
83499;SDS011;73433;50.908;13.746;2023-12-22T02:28:11;16.63;;;3.30;;
83499;SDS011;73433;50.908;13.746;2023-12-22T02:30:54;18.27;;;3.33;;
83499;SDS011;73433;50.908;13.746;2023-12-22T02:33:41;14.10;;;3.07;;
83499;SDS011;73433;50.908;13.746;2023-12-22T02:36:09;13.97;;;3.60;;
83499;SDS011;73433;50.908;13.746;2023-12-22T02:38:38;11.03;;;3.13;;
83499;SDS011;73433;50.908;13.746;2023-12-22T02:41:06;23.43;;;3.80;;
83499;SDS011;73433;50.908;13.746;2023-12-22T02:43:35;11.83;;;3.30;;
83499;SDS011;73433;50.908;13.746;2023-12-22T02:46:02;20.13;;;3.70;;
83499;SDS011;73433;50.908;13.746;2023-12-22T02:48:29;13.20;;;2.53;;
83499;SDS011;73433;50.908;13.746;2023-12-22T02:50:57;9.43;;;2.73;;
83499;SDS011;73433;50.908;13.746;2023-12-22T02:53:24;12.93;;;3.53;;
83499;SDS011;73433;50.908;13.746;2023-12-22T02:55:52;17.13;;;3.83;;
83499;SDS011;73433;50.908;13.746;2023-12-22T02:58:19;16.30;;;3.60;;
83499;SDS011;73433;50.908;13.746;2023-12-22T03:00:47;10.93;;;2.53;;
83499;SDS011;73433;50.908;13.746;2023-12-22T03:03:14;13.90;;;3.60;;
83499;SDS011;73433;50.908;13.746;2023-12-22T03:05:41;15.53;;;3.10;;
83499;SDS011;73433;50.908;13.746;2023-12-22T03:08:09;20.43;;;2.60;;
83499;SDS011;73433;50.908;13.746;2023-12-22T03:10:36;15.40;;;4.00;;
83499;SDS011;73433;50.908;13.746;2023-12-22T03:13:03;13.00;;;2.90;;
83499;SDS011;73433;50.908;13.746;2023-12-22T03:15:30;6.53;;;3.00;;
83499;SDS011;73433;50.908;13.746;2023-12-22T03:17:57;14.37;;;3.50;;
83499;SDS011;73433;50.908;13.746;2023-12-22T03:20:25;23.10;;;2.73;;
83499;SDS011;73433;50.908;13.746;2023-12-22T03:22:52;21.83;;;2.83;;
83499;SDS011;73433;50.908;13.746;2023-12-22T03:25:19;8.80;;;2.87;;
83499;SDS011;73433;50.908;13.746;2023-12-22T03:27:47;20.20;;;3.03;;
83499;SDS011;73433;50.908;13.746;2023-12-22T03:30:14;12.00;;;3.43;;
83499;SDS011;73433;50.908;13.746;2023-12-22T03:32:42;14.73;;;2.70;;
83499;SDS011;73433;50.908;13.746;2023-12-22T03:35:09;19.13;;;3.20;;
83499;SDS011;73433;50.908;13.746;2023-12-22T03:37:36;7.93;;;2.93;;
83499;SDS011;73433;50.908;13.746;2023-12-22T03:40:03;11.43;;;2.90;;
83499;SDS011;73433;50.908;13.746;2023-12-22T03:42:31;11.47;;;3.10;;
83499;SDS011;73433;50.908;13.746;2023-12-22T03:44:58;8.47;;;2.30;;
83499;SDS011;73433;50.908;13.746;2023-12-22T03:47:26;9.60;;;2.70;;
83499;SDS011;73433;50.908;13.746;2023-12-22T03:49:53;14.97;;;3.30;;
83499;SDS011;73433;50.908;13.746;2023-12-22T03:52:20;12.47;;;3.07;;
83499;SDS011;73433;50.908;13.746;2023-12-22T03:54:47;13.93;;;2.27;;
83499;SDS011;73433;50.908;13.746;2023-12-22T03:57:15;4.50;;;2.00;;
83499;SDS011;73433;50.908;13.746;2023-12-22T03:59:42;5.87;;;2.40;;
83499;SDS011;73433;50.908;13.746;2023-12-22T04:02:10;5.57;;;2.80;;
83499;SDS011;73433;50.908;13.746;2023-12-22T04:04:38;7.27;;;2.50;;
83499;SDS011;73433;50.908;13.746;2023-12-22T04:07:05;6.73;;;2.03;;
83499;SDS011;73433;50.908;13.746;2023-12-22T04:09:32;12.67;;;2.70;;
83499;SDS011;73433;50.908;13.746;2023-12-22T04:12:00;7.90;;;1.93;;
83499;SDS011;73433;50.908;13.746;2023-12-22T04:14:27;9.33;;;2.03;;
83499;SDS011;73433;50.908;13.746;2023-12-22T04:16:55;4.30;;;1.77;;
83499;SDS011;73433;50.908;13.746;2023-12-22T04:19:23;8.17;;;1.83;;
83499;SDS011;73433;50.908;13.746;2023-12-22T04:21:50;9.27;;;1.93;;
83499;SDS011;73433;50.908;13.746;2023-12-22T04:24:17;9.97;;;1.77;;
83499;SDS011;73433;50.908;13.746;2023-12-22T04:26:44;10.53;;;1.60;;
83499;SDS011;73433;50.908;13.746;2023-12-22T04:29:12;4.70;;;1.80;;
83499;SDS011;73433;50.908;13.746;2023-12-22T04:31:39;7.10;;;2.30;;
83499;SDS011;73433;50.908;13.746;2023-12-22T04:34:06;5.10;;;1.80;;
83499;SDS011;73433;50.908;13.746;2023-12-22T04:36:34;10.43;;;1.60;;
83499;SDS011;73433;50.908;13.746;2023-12-22T04:39:02;6.00;;;2.73;;
83499;SDS011;73433;50.908;13.746;2023-12-22T04:41:29;4.23;;;1.20;;
83499;SDS011;73433;50.908;13.746;2023-12-22T04:43:56;6.20;;;2.30;;
83499;SDS011;73433;50.908;13.746;2023-12-22T04:46:24;7.20;;;1.97;;
83499;SDS011;73433;50.908;13.746;2023-12-22T04:48:51;4.30;;;2.77;;
83499;SDS011;73433;50.908;13.746;2023-12-22T04:51:18;2.90;;;2.50;;
83499;SDS011;73433;50.908;13.746;2023-12-22T04:53:45;9.03;;;3.30;;
83499;SDS011;73433;50.908;13.746;2023-12-22T04:56:13;6.17;;;3.10;;
83499;SDS011;73433;50.908;13.746;2023-12-22T04:58:40;19.70;;;3.30;;
83499;SDS011;73433;50.908;13.746;2023-12-22T05:01:07;7.50;;;2.00;;
83499;SDS011;73433;50.908;13.746;2023-12-22T05:03:34;8.57;;;1.90;;
83499;SDS011;73433;50.908;13.746;2023-12-22T05:06:02;5.77;;;1.43;;
83499;SDS011;73433;50.908;13.746;2023-12-22T05:08:29;2.90;;;1.40;;
83499;SDS011;73433;50.908;13.746;2023-12-22T05:10:57;2.57;;;1.40;;
83499;SDS011;73433;50.908;13.746;2023-12-22T05:13:24;2.03;;;1.30;;
83499;SDS011;73433;50.908;13.746;2023-12-22T05:15:51;4.63;;;0.97;;
83499;SDS011;73433;50.908;13.746;2023-12-22T05:18:18;1.87;;;0.80;;
83499;SDS011;73433;50.908;13.746;2023-12-22T05:20:45;4.57;;;0.70;;
83499;SDS011;73433;50.908;13.746;2023-12-22T05:23:13;2.83;;;1.10;;
83499;SDS011;73433;50.908;13.746;2023-12-22T05:25:40;1.10;;;0.63;;
83499;SDS011;73433;50.908;13.746;2023-12-22T05:28:07;3.67;;;0.63;;
83499;SDS011;73433;50.908;13.746;2023-12-22T05:30:34;0.80;;;0.77;;
83499;SDS011;73433;50.908;13.746;2023-12-22T05:33:02;0.63;;;0.63;;
83499;SDS011;73433;50.908;13.746;2023-12-22T05:35:29;5.00;;;1.10;;
83499;SDS011;73433;50.908;13.746;2023-12-22T05:37:56;1.77;;;0.90;;
83499;SDS011;73433;50.908;13.746;2023-12-22T05:40:24;3.90;;;1.53;;
83499;SDS011;73433;50.908;13.746;2023-12-22T05:42:51;4.07;;;1.40;;
83499;SDS011;73433;50.908;13.746;2023-12-22T05:45:19;4.10;;;1.33;;
83499;SDS011;73433;50.908;13.746;2023-12-22T05:47:46;1.00;;;0.90;;
83499;SDS011;73433;50.908;13.746;2023-12-22T05:50:14;2.60;;;1.33;;
83499;SDS011;73433;50.908;13.746;2023-12-22T05:52:41;1.90;;;1.07;;
83499;SDS011;73433;50.908;13.746;2023-12-22T05:55:11;2.20;;;1.33;;
83499;SDS011;73433;50.908;13.746;2023-12-22T05:57:38;1.97;;;1.83;;
83499;SDS011;73433;50.908;13.746;2023-12-22T06:00:06;6.17;;;2.03;;
83499;SDS011;73433;50.908;13.746;2023-12-22T06:02:36;3.90;;;1.50;;
83499;SDS011;73433;50.908;13.746;2023-12-22T06:05:05;2.60;;;1.47;;
83499;SDS011;73433;50.908;13.746;2023-12-22T06:07:32;2.70;;;1.00;;
83499;SDS011;73433;50.908;13.746;2023-12-22T06:10:00;2.20;;;1.20;;
83499;SDS011;73433;50.908;13.746;2023-12-22T06:12:27;1.40;;;1.30;;
83499;SDS011;73433;50.908;13.746;2023-12-22T06:14:54;1.30;;;0.90;;
83499;SDS011;73433;50.908;13.746;2023-12-22T06:17:21;6.93;;;1.57;;
83499;SDS011;73433;50.908;13.746;2023-12-22T06:19:48;3.10;;;1.07;;
83499;SDS011;73433;50.908;13.746;2023-12-22T06:22:15;3.23;;;1.30;;
83499;SDS011;73433;50.908;13.746;2023-12-22T06:24:43;3.33;;;1.23;;
83499;SDS011;73433;50.908;13.746;2023-12-22T06:27:11;2.63;;;1.20;;
83499;SDS011;73433;50.908;13.746;2023-12-22T06:29:38;10.83;;;1.57;;
83499;SDS011;73433;50.908;13.746;2023-12-22T06:32:06;3.40;;;1.60;;
83499;SDS011;73433;50.908;13.746;2023-12-22T06:34:34;4.07;;;1.70;;
83499;SDS011;73433;50.908;13.746;2023-12-22T06:37:01;3.33;;;1.67;;
83499;SDS011;73433;50.908;13.746;2023-12-22T06:39:28;4.30;;;1.70;;
83499;SDS011;73433;50.908;13.746;2023-12-22T06:41:55;7.83;;;1.60;;
83499;SDS011;73433;50.908;13.746;2023-12-22T06:44:23;1.60;;;1.13;;
83499;SDS011;73433;50.908;13.746;2023-12-22T06:46:52;5.07;;;1.33;;
83499;SDS011;73433;50.908;13.746;2023-12-22T06:49:19;2.77;;;1.23;;
83499;SDS011;73433;50.908;13.746;2023-12-22T06:51:46;5.83;;;1.30;;
83499;SDS011;73433;50.908;13.746;2023-12-22T06:54:14;4.33;;;1.70;;
83499;SDS011;73433;50.908;13.746;2023-12-22T06:56:43;11.60;;;3.20;;
83499;SDS011;73433;50.908;13.746;2023-12-22T06:59:10;5.30;;;2.60;;
83499;SDS011;73433;50.908;13.746;2023-12-22T07:01:41;5.07;;;1.40;;
83499;SDS011;73433;50.908;13.746;2023-12-22T07:07:31;3.13;;;1.50;;
83499;SDS011;73433;50.908;13.746;2023-12-22T07:10:01;2.43;;;0.77;;
83499;SDS011;73433;50.908;13.746;2023-12-22T07:12:29;3.70;;;1.40;;
83499;SDS011;73433;50.908;13.746;2023-12-22T07:14:58;4.23;;;1.53;;
83499;SDS011;73433;50.908;13.746;2023-12-22T07:17:26;5.47;;;2.17;;
83499;SDS011;73433;50.908;13.746;2023-12-22T07:19:53;8.37;;;4.47;;
83499;SDS011;73433;50.908;13.746;2023-12-22T07:22:24;1.60;;;1.50;;
83499;SDS011;73433;50.908;13.746;2023-12-22T07:24:52;4.03;;;2.13;;
83499;SDS011;73433;50.908;13.746;2023-12-22T07:27:20;39.00;;;17.40;;
83499;SDS011;73433;50.908;13.746;2023-12-22T07:29:47;43.53;;;17.77;;
83499;SDS011;73433;50.908;13.746;2023-12-22T07:32:15;27.70;;;13.30;;
83499;SDS011;73433;50.908;13.746;2023-12-22T07:34:43;1.60;;;1.47;;
83499;SDS011;73433;50.908;13.746;2023-12-22T07:37:11;8.70;;;2.60;;
83499;SDS011;73433;50.908;13.746;2023-12-22T07:39:38;9.97;;;3.93;;
83499;SDS011;73433;50.908;13.746;2023-12-22T07:42:05;8.40;;;3.80;;
83499;SDS011;73433;50.908;13.746;2023-12-22T07:44:33;3.20;;;3.00;;
83499;SDS011;73433;50.908;13.746;2023-12-22T07:47:00;6.73;;;3.40;;
83499;SDS011;73433;50.908;13.746;2023-12-22T07:49:29;8.53;;;5.87;;
83499;SDS011;73433;50.908;13.746;2023-12-22T07:51:58;5.90;;;3.30;;
83499;SDS011;73433;50.908;13.746;2023-12-22T07:54:28;6.07;;;4.70;;
83499;SDS011;73433;50.908;13.746;2023-12-22T07:56:56;4.13;;;3.27;;
83499;SDS011;73433;50.908;13.746;2023-12-22T07:59:23;5.33;;;2.40;;
83499;SDS011;73433;50.908;13.746;2023-12-22T08:01:57;7.43;;;1.13;;
83499;SDS011;73433;50.908;13.746;2023-12-22T08:04:26;4.50;;;1.80;;
83499;SDS011;73433;50.908;13.746;2023-12-22T08:06:53;3.33;;;1.20;;
83499;SDS011;73433;50.908;13.746;2023-12-22T08:09:21;7.63;;;2.00;;
83499;SDS011;73433;50.908;13.746;2023-12-22T08:11:49;1.80;;;1.70;;
83499;SDS011;73433;50.908;13.746;2023-12-22T08:14:19;3.27;;;1.47;;
83499;SDS011;73433;50.908;13.746;2023-12-22T08:16:47;8.10;;;1.43;;
83499;SDS011;73433;50.908;13.746;2023-12-22T08:19:14;8.60;;;1.77;;
83499;SDS011;73433;50.908;13.746;2023-12-22T08:21:44;2.00;;;1.43;;
83499;SDS011;73433;50.908;13.746;2023-12-22T08:24:14;4.10;;;1.40;;
83499;SDS011;73433;50.908;13.746;2023-12-22T08:26:49;3.03;;;1.17;;
83499;SDS011;73433;50.908;13.746;2023-12-22T08:29:17;8.00;;;1.03;;
83499;SDS011;73433;50.908;13.746;2023-12-22T08:31:45;5.60;;;1.60;;
83499;SDS011;73433;50.908;13.746;2023-12-22T08:34:13;3.83;;;1.27;;
83499;SDS011;73433;50.908;13.746;2023-12-22T08:36:40;2.10;;;1.90;;
83499;SDS011;73433;50.908;13.746;2023-12-22T08:39:08;2.90;;;2.70;;
83499;SDS011;73433;50.908;13.746;2023-12-22T08:41:35;9.53;;;3.93;;
83499;SDS011;73433;50.908;13.746;2023-12-22T08:44:05;13.13;;;3.50;;
83499;SDS011;73433;50.908;13.746;2023-12-22T08:46:33;2.13;;;2.03;;
83499;SDS011;73433;50.908;13.746;2023-12-22T08:49:01;5.67;;;2.60;;
83499;SDS011;73433;50.908;13.746;2023-12-22T08:51:30;1.67;;;1.27;;
83499;SDS011;73433;50.908;13.746;2023-12-22T08:53:58;2.30;;;0.93;;
83499;SDS011;73433;50.908;13.746;2023-12-22T08:56:25;2.23;;;1.03;;
83499;SDS011;73433;50.908;13.746;2023-12-22T08:58:53;2.43;;;1.23;;
83499;SDS011;73433;50.908;13.746;2023-12-22T09:01:22;2.73;;;1.67;;
83499;SDS011;73433;50.908;13.746;2023-12-22T09:03:49;3.40;;;0.93;;
83499;SDS011;73433;50.908;13.746;2023-12-22T09:06:17;3.40;;;1.30;;
83499;SDS011;73433;50.908;13.746;2023-12-22T09:08:45;2.20;;;0.83;;
83499;SDS011;73433;50.908;13.746;2023-12-22T09:11:13;2.37;;;1.50;;
83499;SDS011;73433;50.908;13.746;2023-12-22T09:13:43;1.37;;;0.90;;
83499;SDS011;73433;50.908;13.746;2023-12-22T09:16:11;1.60;;;0.97;;
83499;SDS011;73433;50.908;13.746;2023-12-22T09:18:41;0.80;;;0.77;;
83499;SDS011;73433;50.908;13.746;2023-12-22T09:21:11;2.10;;;1.17;;
83499;SDS011;73433;50.908;13.746;2023-12-22T09:23:38;5.50;;;0.87;;
83499;SDS011;73433;50.908;13.746;2023-12-22T09:26:06;1.50;;;1.30;;
83499;SDS011;73433;50.908;13.746;2023-12-22T09:28:33;2.00;;;1.00;;
83499;SDS011;73433;50.908;13.746;2023-12-22T09:31:01;11.10;;;1.23;;
83499;SDS011;73433;50.908;13.746;2023-12-22T09:33:32;0.80;;;0.80;;
83499;SDS011;73433;50.908;13.746;2023-12-22T09:35:59;2.83;;;1.10;;
83499;SDS011;73433;50.908;13.746;2023-12-22T09:38:26;2.50;;;1.00;;
83499;SDS011;73433;50.908;13.746;2023-12-22T09:40:54;3.73;;;0.90;;
83499;SDS011;73433;50.908;13.746;2023-12-22T09:43:22;1.50;;;1.40;;
83499;SDS011;73433;50.908;13.746;2023-12-22T09:45:50;1.20;;;1.10;;
83499;SDS011;73433;50.908;13.746;2023-12-22T09:48:20;1.80;;;1.40;;
83499;SDS011;73433;50.908;13.746;2023-12-22T09:50:54;3.20;;;1.07;;
83499;SDS011;73433;50.908;13.746;2023-12-22T09:53:22;3.70;;;1.90;;
83499;SDS011;73433;50.908;13.746;2023-12-22T09:55:50;3.13;;;1.50;;
83499;SDS011;73433;50.908;13.746;2023-12-22T09:58:18;6.20;;;2.80;;
83499;SDS011;73433;50.908;13.746;2023-12-22T10:00:46;3.13;;;2.70;;
83499;SDS011;73433;50.908;13.746;2023-12-22T10:03:14;2.30;;;2.17;;
83499;SDS011;73433;50.908;13.746;2023-12-22T10:05:44;2.10;;;2.00;;
83499;SDS011;73433;50.908;13.746;2023-12-22T10:08:11;3.20;;;1.67;;
83499;SDS011;73433;50.908;13.746;2023-12-22T10:10:41;4.17;;;2.00;;
83499;SDS011;73433;50.908;13.746;2023-12-22T10:13:12;1.10;;;1.10;;
83499;SDS011;73433;50.908;13.746;2023-12-22T10:15:40;2.00;;;1.07;;
83499;SDS011;73433;50.908;13.746;2023-12-22T10:18:10;1.57;;;1.10;;
83499;SDS011;73433;50.908;13.746;2023-12-22T10:20:37;1.63;;;0.93;;
83499;SDS011;73433;50.908;13.746;2023-12-22T10:23:05;2.10;;;1.30;;
83499;SDS011;73433;50.908;13.746;2023-12-22T10:25:32;1.07;;;0.80;;
83499;SDS011;73433;50.908;13.746;2023-12-22T10:28:00;0.90;;;0.90;;
83499;SDS011;73433;50.908;13.746;2023-12-22T10:30:28;1.57;;;1.47;;
83499;SDS011;73433;50.908;13.746;2023-12-22T10:32:55;1.03;;;0.90;;
83499;SDS011;73433;50.908;13.746;2023-12-22T10:35:23;7.07;;;0.77;;
83499;SDS011;73433;50.908;13.746;2023-12-22T10:37:50;0.80;;;0.67;;
83499;SDS011;73433;50.908;13.746;2023-12-22T10:40:20;1.00;;;0.90;;
83499;SDS011;73433;50.908;13.746;2023-12-22T10:42:49;1.57;;;0.77;;
83499;SDS011;73433;50.908;13.746;2023-12-22T10:45:18;1.97;;;0.90;;
83499;SDS011;73433;50.908;13.746;2023-12-22T10:47:45;5.23;;;1.03;;
83499;SDS011;73433;50.908;13.746;2023-12-22T10:50:21;1.47;;;0.80;;
83499;SDS011;73433;50.908;13.746;2023-12-22T10:52:51;2.30;;;0.50;;
83499;SDS011;73433;50.908;13.746;2023-12-22T10:55:19;6.53;;;0.80;;
83499;SDS011;73433;50.908;13.746;2023-12-22T10:57:46;6.03;;;0.77;;
83499;SDS011;73433;50.908;13.746;2023-12-22T11:00:15;2.37;;;0.80;;
83499;SDS011;73433;50.908;13.746;2023-12-22T11:02:48;1.53;;;0.60;;
83499;SDS011;73433;50.908;13.746;2023-12-22T11:05:20;6.83;;;1.30;;
83499;SDS011;73433;50.908;13.746;2023-12-22T11:07:50;1.67;;;1.10;;
83499;SDS011;73433;50.908;13.746;2023-12-22T11:10:21;0.60;;;0.40;;
83499;SDS011;73433;50.908;13.746;2023-12-22T11:12:49;0.70;;;0.60;;
83499;SDS011;73433;50.908;13.746;2023-12-22T11:15:18;0.60;;;0.53;;
83499;SDS011;73433;50.908;13.746;2023-12-22T11:17:47;2.20;;;0.50;;
83499;SDS011;73433;50.908;13.746;2023-12-22T11:20:18;1.23;;;0.93;;
83499;SDS011;73433;50.908;13.746;2023-12-22T11:22:47;1.20;;;0.80;;
83499;SDS011;73433;50.908;13.746;2023-12-22T11:25:17;2.50;;;1.67;;
83499;SDS011;73433;50.908;13.746;2023-12-22T11:27:46;2.20;;;1.07;;
83499;SDS011;73433;50.908;13.746;2023-12-22T11:30:15;2.13;;;1.13;;
83499;SDS011;73433;50.908;13.746;2023-12-22T11:32:45;1.30;;;1.10;;
83499;SDS011;73433;50.908;13.746;2023-12-22T11:35:13;1.10;;;1.00;;
83499;SDS011;73433;50.908;13.746;2023-12-22T11:37:41;3.10;;;1.27;;
83499;SDS011;73433;50.908;13.746;2023-12-22T11:40:09;1.10;;;1.00;;
83499;SDS011;73433;50.908;13.746;2023-12-22T11:42:38;1.80;;;1.03;;
83499;SDS011;73433;50.908;13.746;2023-12-22T11:45:13;1.27;;;1.03;;
83499;SDS011;73433;50.908;13.746;2023-12-22T11:47:43;4.33;;;1.50;;
83499;SDS011;73433;50.908;13.746;2023-12-22T11:50:11;3.27;;;1.67;;
83499;SDS011;73433;50.908;13.746;2023-12-22T11:52:38;2.17;;;1.30;;
83499;SDS011;73433;50.908;13.746;2023-12-22T11:55:07;2.90;;;1.60;;
83499;SDS011;73433;50.908;13.746;2023-12-22T11:57:35;5.73;;;2.07;;
83499;SDS011;73433;50.908;13.746;2023-12-22T12:00:48;3.63;;;1.27;;
83499;SDS011;73433;50.908;13.746;2023-12-22T12:02:58;4.23;;;1.60;;
83499;SDS011;73433;50.908;13.746;2023-12-22T12:05:25;3.07;;;1.37;;
83499;SDS011;73433;50.908;13.746;2023-12-22T12:07:52;2.23;;;1.73;;
83499;SDS011;73433;50.908;13.746;2023-12-22T12:13:04;5.30;;;1.30;;
83499;SDS011;73433;50.908;13.746;2023-12-22T12:15:33;7.33;;;1.30;;
83499;SDS011;73433;50.908;13.746;2023-12-22T12:18:01;9.90;;;2.13;;
83499;SDS011;73433;50.908;13.746;2023-12-22T12:20:29;6.80;;;1.73;;
83499;SDS011;73433;50.908;13.746;2023-12-22T12:22:57;6.47;;;1.43;;
83499;SDS011;73433;50.908;13.746;2023-12-22T12:25:27;6.30;;;1.83;;
83499;SDS011;73433;50.908;13.746;2023-12-22T12:28:03;5.17;;;1.70;;
83499;SDS011;73433;50.908;13.746;2023-12-22T12:30:31;2.53;;;1.77;;
83499;SDS011;73433;50.908;13.746;2023-12-22T12:33:09;3.20;;;1.63;;
83499;SDS011;73433;50.908;13.746;2023-12-22T12:35:38;3.20;;;1.67;;
83499;SDS011;73433;50.908;13.746;2023-12-22T12:38:11;5.23;;;2.20;;
83499;SDS011;73433;50.908;13.746;2023-12-22T12:40:40;6.20;;;1.90;;
83499;SDS011;73433;50.908;13.746;2023-12-22T12:43:08;1.60;;;1.50;;
83499;SDS011;73433;50.908;13.746;2023-12-22T12:45:35;3.70;;;1.47;;
83499;SDS011;73433;50.908;13.746;2023-12-22T12:48:03;6.33;;;1.70;;
83499;SDS011;73433;50.908;13.746;2023-12-22T12:50:33;2.07;;;1.40;;
83499;SDS011;73433;50.908;13.746;2023-12-22T12:53:02;2.33;;;0.80;;
83499;SDS011;73433;50.908;13.746;2023-12-22T12:55:29;1.07;;;0.73;;
83499;SDS011;73433;50.908;13.746;2023-12-22T12:57:57;2.50;;;0.80;;
83499;SDS011;73433;50.908;13.746;2023-12-22T13:00:27;2.07;;;0.57;;
83499;SDS011;73433;50.908;13.746;2023-12-22T13:02:58;1.10;;;1.07;;
83499;SDS011;73433;50.908;13.746;2023-12-22T13:05:29;1.67;;;1.00;;
83499;SDS011;73433;50.908;13.746;2023-12-22T13:08:10;3.40;;;1.00;;
83499;SDS011;73433;50.908;13.746;2023-12-22T13:10:39;1.17;;;0.70;;
83499;SDS011;73433;50.908;13.746;2023-12-22T13:13:08;0.80;;;0.80;;
83499;SDS011;73433;50.908;13.746;2023-12-22T13:15:36;1.20;;;1.10;;
83499;SDS011;73433;50.908;13.746;2023-12-22T13:18:08;0.70;;;0.60;;
83499;SDS011;73433;50.908;13.746;2023-12-22T13:20:36;0.70;;;0.50;;
83499;SDS011;73433;50.908;13.746;2023-12-22T13:23:03;1.30;;;0.60;;
83499;SDS011;73433;50.908;13.746;2023-12-22T13:25:40;2.63;;;0.60;;
83499;SDS011;73433;50.908;13.746;2023-12-22T13:28:07;1.77;;;0.80;;
83499;SDS011;73433;50.908;13.746;2023-12-22T13:30:35;0.60;;;0.50;;
83499;SDS011;73433;50.908;13.746;2023-12-22T13:33:04;0.50;;;0.43;;
83499;SDS011;73433;50.908;13.746;2023-12-22T13:35:32;2.33;;;0.40;;
83499;SDS011;73433;50.908;13.746;2023-12-22T13:38:09;0.70;;;0.50;;
83499;SDS011;73433;50.908;13.746;2023-12-22T13:40:38;0.53;;;0.40;;
83499;SDS011;73433;50.908;13.746;2023-12-22T13:43:06;2.93;;;0.50;;
83499;SDS011;73433;50.908;13.746;2023-12-22T13:45:34;0.50;;;0.30;;
83499;SDS011;73433;50.908;13.746;2023-12-22T13:48:02;0.50;;;0.40;;
83499;SDS011;73433;50.908;13.746;2023-12-22T13:50:30;0.50;;;0.40;;
83499;SDS011;73433;50.908;13.746;2023-12-22T13:53:01;0.50;;;0.40;;
83499;SDS011;73433;50.908;13.746;2023-12-22T13:55:37;0.50;;;0.30;;
83499;SDS011;73433;50.908;13.746;2023-12-22T13:58:06;0.40;;;0.30;;
83499;SDS011;73433;50.908;13.746;2023-12-22T14:00:34;1.53;;;0.63;;
83499;SDS011;73433;50.908;13.746;2023-12-22T14:03:02;0.70;;;0.70;;
83499;SDS011;73433;50.908;13.746;2023-12-22T14:05:29;0.60;;;0.53;;
83499;SDS011;73433;50.908;13.746;2023-12-22T14:08:03;0.90;;;0.50;;
83499;SDS011;73433;50.908;13.746;2023-12-22T14:10:31;0.70;;;0.67;;
83499;SDS011;73433;50.908;13.746;2023-12-22T14:12:58;0.80;;;0.80;;
83499;SDS011;73433;50.908;13.746;2023-12-22T14:15:25;0.60;;;0.60;;
83499;SDS011;73433;50.908;13.746;2023-12-22T14:18:10;0.60;;;0.60;;
83499;SDS011;73433;50.908;13.746;2023-12-22T14:20:38;0.50;;;0.50;;
83499;SDS011;73433;50.908;13.746;2023-12-22T14:23:05;0.50;;;0.50;;
83499;SDS011;73433;50.908;13.746;2023-12-22T14:25:36;0.50;;;0.40;;
83499;SDS011;73433;50.908;13.746;2023-12-22T14:28:03;0.60;;;0.50;;
83499;SDS011;73433;50.908;13.746;2023-12-22T14:30:31;0.50;;;0.37;;
83499;SDS011;73433;50.908;13.746;2023-12-22T14:32:58;0.50;;;0.40;;
83499;SDS011;73433;50.908;13.746;2023-12-22T14:35:26;0.90;;;0.40;;
83499;SDS011;73433;50.908;13.746;2023-12-22T14:37:53;0.50;;;0.40;;
83499;SDS011;73433;50.908;13.746;2023-12-22T14:40:20;0.50;;;0.40;;
83499;SDS011;73433;50.908;13.746;2023-12-22T14:42:47;0.40;;;0.37;;